Amelia, Louisiana
Current Conditions -  °F | °C
As of 8:55 AM on Wednesday 22 Oct 2014 (Local Time) from KPTN Reporting Station
Clear Clear  
Wind Chill: 66°   Ceiling: Unl
Heat Index: 66°   Visibility: 10mi
Dew Point: 61°   Wind: 8mph
Humidity: 83%   Direction: 50°NE
Pressure: 30.1"   Gusts: NA
Location:  29.67°N, 91.1°W
Report Text: KPTN 221355Z AUTO 05007KT 10SM CLR 19/16 A3010 RMK AO1
Loading
Personal Weather Stations






























Interactive Weather Map
Tropical Storm Tracking
New forecast layout! Learn more

10-Day Weather Forecast

Advertisements
Track Severe Weather on mobile